CSUN New Campus Station -PST Time - Most Recent Data on bottom of page




           Date/Time      Avg      Avg      Max     Wind      Avg      Max      Min      Avg      Avg    Total      Avg     Batt
                         Wind     Wind     Wind      Dir     Temp     Temp     Temp       RH      Bar     Rain    Solar     Volt
                      Spd MPH      Dir  Spd MPH   at Max    Deg_F    Deg_F    Deg_F        % Press_mb   Inches     W/m2      Min
--------------------------------------------------------------------------------------------------------------------------------
    03/03/2021 00:00      0.4       15      1.3       30     46.3     47.4     45.3       42     1008     0.00        0     13.4
    03/03/2021 00:15      0.5      201      2.2      209     45.2     45.7     44.8       44     1008     0.00        0     13.5
    03/03/2021 00:30      0.1      173      0.8      173     44.8     45.1     44.5       44     1008     0.00        0     13.5
    03/03/2021 00:45      0.7      300      1.4      294     44.5     44.8     44.2       45     1008     0.00        0     13.5
    03/03/2021 01:00      1.2      326      2.7      329     44.5     44.6     44.3       44     1008     0.00        0     13.5
    03/03/2021 01:15      1.6      344      2.2      335     44.5     45.0     44.0       43     1008     0.00        0     13.5
    03/03/2021 01:30      0.2        1      1.8      348     44.4     45.0     43.5       45     1008     0.00        0     13.5
    03/03/2021 01:45      0.5        8      1.4       15     43.0     43.7     42.5       48     1008     0.00        0     13.5
    03/03/2021 02:00      2.1       23      4.3       25     43.4     45.0     42.6       42     1008     0.00        0     13.5
    03/03/2021 02:15      2.0       20      3.5       39     44.6     45.1     44.2       43     1008     0.00        0     13.5
    03/03/2021 02:30      2.5       26      5.2       31     44.6     45.5     44.1       37     1008     0.00        0     13.5
    03/03/2021 02:45      1.0       79      3.3       43     44.9     45.5     44.0       40     1007     0.00        0     13.5
    03/03/2021 03:00      0.0        0      0.0      183     42.8     44.2     41.9       46     1007     0.00        0     13.5
    03/03/2021 03:15      0.4      246      1.5      245     41.3     42.1     40.5       49     1007     0.00        0     13.5
    03/03/2021 03:30      1.0      286      1.6      284     40.4     40.7     40.2       50     1007     0.00        0     13.5
    03/03/2021 03:45      1.0      288      2.0      262     40.3     40.5     40.1       52     1007     0.00        0     13.5
    03/03/2021 04:00      1.0      317      2.0      342     40.0     40.3     39.7       52     1007     0.00        0     13.5
    03/03/2021 04:15      1.7      326      2.8      337     40.5     41.1     39.9       50     1007     0.00        0     13.6
    03/03/2021 04:30      1.4      341      2.2      353     41.0     41.2     40.8       50     1007     0.00        0     13.6
    03/03/2021 04:45      0.7      343      1.8      346     40.4     41.0     39.9       51     1007     0.00        0     13.6
    03/03/2021 05:00      1.2       17      3.9        3     40.0     40.2     39.7       52     1007     0.00        0     13.6
    03/03/2021 05:15      3.2       30      5.5       38     41.9     42.8     39.9       40     1007     0.00        0     13.6
    03/03/2021 05:30      1.5       14      4.3      336     42.7     43.2     42.4       41     1007     0.00        0     13.5
    03/03/2021 05:45      2.2       51      5.1       32     42.6     43.2     42.1       41     1007     0.00        0     13.5
    03/03/2021 06:00      1.3      239      2.3      252     40.9     42.7     40.0       47     1007     0.00        0     13.5
    03/03/2021 06:15      1.6      272      3.0      258     39.4     40.2     38.5       54     1007     0.00        0     13.5
    03/03/2021 06:30      1.6      340      2.6      324     38.8     39.5     38.2       54     1007     0.00        4     13.6
    03/03/2021 06:45      0.9      304      2.5      342     39.1     39.6     38.6       55     1007     0.00        9     13.6
    03/03/2021 07:00      1.9      349      3.5        0     40.0     40.9     38.8       52     1007     0.00       19     13.6
    03/03/2021 07:15      0.2      196      1.2      187     40.0     40.5     39.7       54     1008     0.00       40     13.5
    03/03/2021 07:30      2.1      175      5.7      187     41.1     42.8     39.9       52     1008     0.00       93     13.5
    03/03/2021 07:45      2.6      206      5.8      178     45.2     47.8     42.7       39     1008     0.00      243     13.4
    03/03/2021 08:00      1.0      230      3.5      255     49.3     49.9     47.6       42     1008     0.00      174     13.4
    03/03/2021 08:15      1.3      113      4.2       72     49.6     49.9     49.4       57     1009     0.00       81     13.4
    03/03/2021 08:30      2.9      117      8.0      125     49.7     50.1     49.2       65     1009     0.00       89     13.4
    03/03/2021 08:45      3.4      142      6.1      172     50.1     50.3     49.8       66     1009     0.00       94     13.3
    03/03/2021 09:00      1.9      114      5.0      139     50.5     50.8     50.1       67     1009     0.00       90     13.3
    03/03/2021 09:15      2.4       84      6.0       74     50.8     51.1     50.4       69     1009     0.00      106     13.3
    03/03/2021 09:30      2.8       78      6.1       86     51.3     51.6     50.9       67     1010     0.00      125     13.3
    03/03/2021 09:45      2.3       75      6.7       64     51.4     51.8     51.0       66     1010     0.00       86     13.3
    03/03/2021 10:00      2.2      150      4.5      169     52.0     52.4     51.6       68     1010     0.00       84     13.3
    03/03/2021 10:15      2.8      134      6.2       85     52.2     52.5     51.8       70     1010     0.00       48     13.3
    03/03/2021 10:30      3.8      149      7.8      148     51.2     52.0     50.6       63     1010     0.00       79     13.3
    03/03/2021 10:45      2.1      183      7.2      140     51.2     51.6     50.9       66     1010     0.00       94     13.3
    03/03/2021 11:00      1.4      225      3.5      254     51.5     51.9     51.1       64     1010     0.01       84     13.3
    03/03/2021 11:15      4.4      114     16.8      107     49.0     51.3     47.1       74     1010     0.05       52     13.3
    03/03/2021 11:30      4.6      154     10.3      151     47.4     47.9     46.8       78     1010     0.01      158     13.4
    03/03/2021 11:45      4.9      136     10.4      157     47.8     48.1     47.4       78     1010     0.00      152     13.4
    03/03/2021 12:00      5.2      107     13.0      123     47.5     47.8     47.3       79     1010     0.00      181     13.4
    03/03/2021 12:15      6.2       71     14.6       55     47.3     47.7     46.8       78     1010     0.00      169     13.4
    03/03/2021 12:30      5.2       71     13.1       56     47.6     47.9     47.3       78     1009     0.00      173     13.4
    03/03/2021 12:45      4.4       78     10.3       63     48.2     49.2     47.6       74     1009     0.00      217     13.4
    03/03/2021 13:00      3.7       84      9.1       67     49.3     49.8     48.8       69     1009     0.00      236     13.3
    03/03/2021 13:15      4.1      132      8.6      133     49.8     50.1     49.5       67     1009     0.00      244     13.3
    03/03/2021 13:30      3.6      117      8.7      146     49.9     50.2     49.6       68     1009     0.00      231     13.3
    03/03/2021 13:45      3.4      118      7.2      147     50.2     50.5     49.7       67     1009     0.00      230     13.3
    03/03/2021 14:00      3.4      127      8.6      131     51.0     51.3     50.4       63     1009     0.00      256     13.3
    03/03/2021 14:15      3.8      121      9.8      146     51.4     52.1     51.0       62     1009     0.00      280     13.3
    03/03/2021 14:30      3.3      114      7.6      157     52.7     53.4     52.1       55     1009     0.00      267     13.3
    03/03/2021 14:45      4.3      103      9.9       71     53.5     53.8     53.3       52     1009     0.00      232     13.3
    03/03/2021 15:00      4.3       92      8.2       76     54.0     54.3     53.5       52     1009     0.00      206     13.3
    03/03/2021 15:15      4.5      104     10.1       93     54.0     54.3     53.7       51     1010     0.00      213     13.3
    03/03/2021 15:30      3.3      100      8.9       71     54.4     54.9     54.0       52     1010     0.00      218     13.3
    03/03/2021 15:45      3.8       95      8.5       95     54.3     54.6     54.0       51     1009     0.00      192     13.3
    03/03/2021 16:00      3.9       83     12.4       75     54.9     55.7     54.1       49     1010     0.00      280     13.2
    03/03/2021 16:15      3.6      110      9.2       79     55.8     56.3     55.4       48     1010     0.00      305     13.2
    03/03/2021 16:30      4.2      122     10.2      136     55.7     56.3     55.0       49     1010     0.00       86     13.2
    03/03/2021 16:45      5.0      160      8.6      135     54.8     55.2     54.5       51     1010     0.00       74     13.2
    03/03/2021 17:00      3.3      148      6.6      162     54.1     54.7     53.5       53     1010     0.00       24     13.3
    03/03/2021 17:15      3.5      158      6.7      166     53.4     53.8     53.2       53     1010     0.00       29     13.3
    03/03/2021 17:30      2.4      150      4.9      132     53.4     53.6     53.2       54     1011     0.00       17     13.3
    03/03/2021 17:45      3.0      143      5.3      164     53.3     53.5     53.1       53     1011     0.00       10     13.3
    03/03/2021 18:00      2.9      164      6.0      146     52.8     53.4     52.1       55     1011     0.00        4     13.3
    03/03/2021 18:15      2.4      162      4.3      159     51.8     52.2     51.6       56     1011     0.00        0     13.3
    03/03/2021 18:30      1.0      115      2.6      171     51.8     52.1     51.3       58     1011     0.00        0     13.3
    03/03/2021 18:45      1.8      181      3.6      171     50.5     51.4     49.8       60     1012     0.00        0     13.4
    03/03/2021 19:00      2.5      156      3.6      164     49.8     50.1     49.5       61     1012     0.00        0     13.4
    03/03/2021 19:15      2.1      104      4.7       95     50.2     50.4     49.9       61     1012     0.00        0     13.4
    03/03/2021 19:30      1.9       73      4.5       95     50.1     50.3     49.9       62     1012     0.00        0     13.4
    03/03/2021 19:45      2.0       82      4.0       79     49.8     50.3     49.5       63     1013     0.00        0     13.4
    03/03/2021 20:00      1.5       75      3.0       77     49.2     49.7     48.9       64     1013     0.00        0     13.4
    03/03/2021 20:15      1.5       88      4.0       95     49.1     49.4     48.8       65     1013     0.00        0     13.4
    03/03/2021 20:30      0.0      113      1.3      179     48.5     49.0     47.9       67     1014     0.00        0     13.4
    03/03/2021 20:45      0.0      322      0.7      322     47.3     48.1     46.6       71     1014     0.00        0     13.4
    03/03/2021 21:00      0.5      328      1.5      327     46.5     47.0     46.1       73     1014     0.00        0     13.4
    03/03/2021 21:15      1.4      343      2.3      352     45.9     46.4     45.3       75     1014     0.00        0     13.4
    03/03/2021 21:30      1.0      311      2.2      348     45.6     46.0     45.2       74     1015     0.00        0     13.4
    03/03/2021 21:45      1.1      298      1.7      285     45.1     45.6     44.7       77     1015     0.00        0     13.4
    03/03/2021 22:00      1.4      330      2.5      333     45.6     46.4     45.0       76     1015     0.00        0     13.4
    03/03/2021 22:15      1.6      332      2.9      345     46.1     46.5     45.6       75     1016     0.00        0     13.4
    03/03/2021 22:30      1.4      339      2.3      353     45.7     46.0     45.2       75     1016     0.00        0     13.4
    03/03/2021 22:45      1.2      322      2.2      342     44.9     45.4     44.4       77     1016     0.00        0     13.4
    03/03/2021 23:00      0.8      326      1.6      326     44.5     44.8     44.1       78     1016     0.00        0     13.5
    03/03/2021 23:15      0.4      332      1.4      337     43.8     44.3     43.3       79     1016     0.00        0     13.5
    03/03/2021 23:30      1.0       94      1.8      104     43.1     43.5     42.9       80     1016     0.00        0     13.5
    03/03/2021 23:45      1.0       70      2.1       72     43.1     43.3     42.9       81     1016     0.00        0     13.5
    03/04/2021 00:00      0.4       84      1.5       85     42.8     43.1     42.0       80     1017     0.00        0     13.5
    03/04/2021 00:15      0.0        0      0.0       85     42.0     42.3     41.8       82     1017     0.00        0     13.5
    03/04/2021 00:30      0.2       84      1.3       84     42.0     42.2     41.8       83     1017     0.00        0     13.5
    03/04/2021 00:45      0.0       85      1.1       85     41.7     42.1     41.3       83     1017     0.00        0     13.5
    03/04/2021 01:00      0.4      343      1.3      354     41.4     41.6     40.9       84     1018     0.00        0     13.5
    03/04/2021 01:15      1.3      323      2.1      322     41.7     42.2     41.2       85     1018     0.00        0     13.5
    03/04/2021 01:30      0.8      351      1.4      344     42.0     42.3     41.9       84     1018     0.00        0     13.5
    03/04/2021 01:45      0.2       37      1.5       38     42.2     42.6     41.9       84     1018     0.00        0     13.5
    03/04/2021 02:00      0.0        0      0.0       37     42.3     42.5     42.0       85     1018     0.00        0     13.5
    03/04/2021 02:15      0.3        8      1.5        6     42.2     42.5     41.8       84     1018     0.00        0     13.5
    03/04/2021 02:30      0.5      230      1.8      219     41.6     42.1     41.0       84     1018     0.00        0     13.5
    03/04/2021 02:45      0.2      268      1.1      268     41.4     41.6     41.2       85     1018     0.00        0     13.5
    03/04/2021 03:00      1.0      176      2.5      166     41.0     41.5     40.6       85     1018     0.00        0     13.5
    03/04/2021 03:15      0.5      165      2.5      166     40.7     40.9     40.2       85     1018     0.00        0     13.5
    03/04/2021 03:30      0.5      132      2.4      162     40.6     41.1     40.0       85     1018     0.00        0     13.5
    03/04/2021 03:45      0.1      180      0.8      180     40.2     40.7     39.8       85     1019     0.00        0     13.5
    03/04/2021 04:00      0.7      270      2.5      245     39.9     40.3     39.5       86     1019     0.00        0     13.5
    03/04/2021 04:15      1.0      286      2.6      255     39.8     40.0     39.4       86     1019     0.00        0     13.5
    03/04/2021 04:30      1.3      312      2.1      342     40.3     40.6     39.8       86     1019     0.00        0     13.5
    03/04/2021 04:45      0.7      309      1.6      314     40.2     40.6     39.7       86     1020     0.00        0     13.5
    03/04/2021 05:00      0.2      314      2.0      331     39.8     40.1     39.4       86     1020     0.00        0     13.5
    03/04/2021 05:15      1.3      345      2.5      333     39.7     39.9     39.4       86     1020     0.00        0     13.5
    03/04/2021 05:30      1.9       17      4.5       19     40.4     41.3     39.7       87     1020     0.00        0     13.5
    03/04/2021 05:45      3.9       32      6.0       35     42.0     42.4     41.1       84     1020     0.00        0     13.5
    03/04/2021 06:00      2.1       31      4.6       48     42.1     42.4     41.9       83     1020     0.00        0     13.5
    03/04/2021 06:15      2.1       28      4.4        7     42.3     42.6     42.0       82     1020     0.00        0     13.5
    03/04/2021 06:30      0.8      230      2.3      203     41.3     42.2     40.4       81     1020     0.00        5     13.5
    03/04/2021 06:45      1.6      252      3.4      253     40.3     40.6     40.0       82     1020     0.00       13     13.5
    03/04/2021 07:00      1.7      240      4.5      251     40.1     40.4     39.9       84     1021     0.00       31     13.5
    03/04/2021 07:15      1.7      292      2.7      296     40.8     41.6     40.2       85     1021     0.00       55     13.5
    03/04/2021 07:30      1.9      247      4.4      252     42.7     43.9     41.4       83     1021     0.00      133     13.5
    03/04/2021 07:45      1.2      278      2.9      246     44.7     45.9     43.8       79     1021     0.00      174     13.4
    03/04/2021 08:00      1.3      287      3.7      286     46.7     47.8     45.7       74     1022     0.00      216     13.4
    03/04/2021 08:15      1.3      261      3.1      247     49.0     50.3     47.7       70     1022     0.00      262     13.3
    03/04/2021 08:30      1.8      227      3.7      245     51.4     53.0     50.1       64     1022     0.00      307     13.3
    03/04/2021 08:45      1.2      149      3.2      101     52.8     53.1     52.5       59     1022     0.00      358     13.3
    03/04/2021 09:00      0.9      189      2.6      159     54.1     55.8     52.7       57     1023     0.00      401     13.3
    03/04/2021 09:15      2.0       33      5.6       18     54.8     56.0     54.1       56     1022     0.00      443     13.2
    03/04/2021 09:30      2.3       59      5.8       75     55.0     55.9     54.3       52     1022     0.00      481     13.2
    03/04/2021 09:45      2.7       75      6.2       88     55.9     56.7     55.1       50     1022     0.00      517     13.2
    03/04/2021 10:00      3.5      150      7.5      133     57.5     59.1     56.6       50     1022     0.00      547     13.2
    03/04/2021 10:15      3.2      137      7.5      164     58.7     59.5     58.3       47     1022     0.00      578     13.1
    03/04/2021 10:30      3.3      172      6.6      176     60.5     61.1     59.5       44     1022     0.00      604     13.1
    03/04/2021 10:45      3.7      186      7.7      164     61.3     61.8     60.4       44     1022     0.00      628     13.1
    03/04/2021 11:00      2.9      203      6.0      191     62.1     62.9     61.0       41     1022     0.00      646     13.1
    03/04/2021 11:15      2.8      246      6.9      198     61.0     62.4     60.3       45     1022     0.00      663     13.1
    03/04/2021 11:30      3.3      218      8.1      186     62.5     63.5     61.2       44     1022     0.00      674     13.1
    03/04/2021 11:45      3.1      199      8.1      167     62.2     63.5     61.1       40     1022     0.00      683     13.1
    03/04/2021 12:00      3.2      192      8.2      189     63.3     64.3     62.9       40     1022     0.00      688     13.1
    03/04/2021 12:15      3.4      206      8.7      198     65.0     65.7     64.2       35     1022     0.00      689     13.1
    03/04/2021 12:30      2.7      107      7.7      145     64.5     65.2     63.9       35     1022     0.00      687     13.1
    03/04/2021 12:45      2.1      130      7.6      124     65.3     66.0     64.6       34     1022     0.00      681     13.1
    03/04/2021 13:00      3.1      139      7.9      181     66.6     67.4     65.9       33     1022     0.00      673     13.1
    03/04/2021 13:15      2.1       29      5.3       35     66.4     66.9     66.0       34     1022     0.00      660     13.1
    03/04/2021 13:30      3.3      182      8.1      163     67.6     68.9     66.5       29     1022     0.00      643     13.1
    03/04/2021 13:45      3.2      219      7.2      155     67.4     68.7     66.7       30     1021     0.00      624     13.1
    03/04/2021 14:00      5.1      176      9.8      158     69.5     70.5     68.0       31     1021     0.00      601     13.1
    03/04/2021 14:15      4.1      147     10.2      155     69.1     70.7     68.2       32     1021     0.00      575     13.0
    03/04/2021 14:30      5.0      163      9.2      149     69.2     70.1     68.4       30     1021     0.00      544     13.0
    03/04/2021 14:45      4.6      172      8.2      146     69.5     70.2     68.9       29     1021     0.00      512     13.0
    03/04/2021 15:00      3.6      158      6.8      128     69.5     70.2     68.0       32     1021     0.00      476     13.0
    03/04/2021 15:15      3.5      121      7.8      136     68.0     68.5     67.6       30     1021     0.00      438     13.0
    03/04/2021 15:30      3.4       94      6.8       86     67.8     68.2     67.4       31     1021     0.00      398     13.0
    03/04/2021 15:45      2.3      116      5.7       92     67.8     68.2     67.5       31     1021     0.00      356     13.0
    03/04/2021 16:00      3.4      137      8.2      140     67.8     68.1     67.5       31     1021     0.00      311     13.0
    03/04/2021 16:15      2.2      172      6.6      194     67.8     68.5     67.3       29     1021     0.00      260     13.0
    03/04/2021 16:30      3.2      135      7.2      155     67.6     68.8     66.4       34     1021     0.00      110     13.1
    03/04/2021 16:45      5.5      152      9.2      137     65.7     66.6     64.9       36     1021     0.00       53     13.1
    03/04/2021 17:00      3.7      126      8.6      146     64.8     65.2     64.3       38     1021     0.00       39     13.1
    03/04/2021 17:15      4.8      146      8.4      151     63.9     64.6     63.3       40     1021     0.00       31     13.1
    03/04/2021 17:30      2.9      206      6.1      190     62.8     63.4     62.2       42     1021     0.00       24     13.2
    03/04/2021 17:45      1.8      282      5.0      295     61.9     62.5     60.9       45     1022     0.00       14     13.2
    03/04/2021 18:00      3.2      274      8.1      248     60.4     61.0     59.8       48     1022     0.00        5     13.2
    03/04/2021 18:15      3.9      251      9.3      250     59.2     59.9     58.5       51     1022     0.00        0     13.2
    03/04/2021 18:30      3.6      267      7.5      264     58.3     58.7     57.8       53     1022     0.00        0     13.2
    03/04/2021 18:45      3.8      263      7.8      239     57.4     58.0     57.0       55     1022     0.00        0     13.3
    03/04/2021 19:00      2.4      276      6.5      238     56.5     57.1     56.0       57     1022     0.00        0     13.3
    03/04/2021 19:15      1.9      278      4.2      291     55.7     56.2     55.3       58     1022     0.00        0     13.3
    03/04/2021 19:30      1.7      244      3.0      245     54.8     55.5     54.0       59     1022     0.00        0     13.3
    03/04/2021 19:45      2.6      244      6.2      244     53.5     54.2     53.1       62     1022     0.00        0     13.3
    03/04/2021 20:00      2.1      267      4.4      260     53.8     54.3     53.2       61     1022     0.00        0     13.3
    03/04/2021 20:15      1.3      255      3.3      246     53.4     54.1     52.9       62     1022     0.00        0     13.3
    03/04/2021 20:30      1.3      299      2.7      250     52.5     53.0     52.2       65     1022     0.00        0     13.3
    03/04/2021 20:45      0.3      284      1.8      289     52.0     52.5     51.4       66     1022     0.00        0     13.3
    03/04/2021 21:00      0.9      208      2.9      202     51.2     51.7     50.7       67     1022     0.00        0     13.4
    03/04/2021 21:15      0.5      238      1.6      208     50.8     51.1     50.5       67     1022     0.00        0     13.4
    03/04/2021 21:30      1.4      214      2.7      207     50.1     50.7     49.5       68     1022     0.00        0     13.4
    03/04/2021 21:45      1.0      237      2.6      257     49.5     49.7     49.4       70     1022     0.00        0     13.4
    03/04/2021 22:00      1.1      279      2.2      252     49.3     49.6     48.9       70     1022     0.00        0     13.4
    03/04/2021 22:15      0.3      309      1.6      292     48.8     49.1     48.6       71     1022     0.00        0     13.4
    03/04/2021 22:30      0.0      266      0.5      266     48.5     48.8     48.0       72     1022     0.00        0     13.4
    03/04/2021 22:45      0.2      288      1.0      315     48.0     48.3     47.5       74     1022     0.00        0     13.4
    03/04/2021 23:00      0.5      317      1.1      313     47.6     47.9     47.4       75     1022     0.00        0     13.4
    03/04/2021 23:15      0.5      319      1.4      333     47.5     47.7     47.2       75     1022     0.00        0     13.4
    03/04/2021 23:30      0.5      325      1.5      325     47.1     47.5     46.8       75     1022     0.00        0     13.4
    03/04/2021 23:45      0.3      326      1.1      327     46.8     47.0     46.5       76     1021     0.00        0     13.4
    03/05/2021 00:00      0.2      325      0.9      319     46.5     46.8     46.2       76     1021     0.00        0     13.4
    03/05/2021 00:15      0.6      325      1.8      327     46.1     46.3     45.8       76     1021     0.00        0     13.4
    03/05/2021 00:30      0.3      184      1.4      184     45.6     46.1     45.1       76     1021     0.00        0     13.4
    03/05/2021 00:45      0.4      280      1.6      272     45.0     45.4     44.6       76     1021     0.00        0     13.4
    03/05/2021 01:00      1.1      316      2.6      322     45.1     45.4     44.9       76     1021     0.00        0     13.5
    03/05/2021 01:15      1.2      344      2.3       -0     45.4     45.6     45.0       76     1021     0.00        0     13.5
    03/05/2021 01:30      0.3      351      1.5      350     45.0     45.4     44.7       76     1021     0.00        0     13.5
    03/05/2021 01:45      0.5       24      1.7      351     44.8     45.0     44.6       76     1021     0.00        0     13.5
    03/05/2021 02:00      0.8      113      2.1      103     44.7     45.1     44.3       76     1021     0.00        0     13.5
    03/05/2021 02:15      0.6       52      2.1      331     44.3     44.7     44.0       77     1020     0.00        0     13.5
    03/05/2021 02:30      1.5        3      3.2      341     44.3     45.0     43.8       77     1020     0.00        0     13.5
    03/05/2021 02:45      1.3        7      3.9       62     44.6     45.1     44.1       77     1020     0.00        0     13.5
    03/05/2021 03:00      1.1      343      2.4      321     45.5     45.9     44.8       74     1020     0.00        0     13.5
    03/05/2021 03:15      1.0      357      2.1      355     45.1     45.5     44.8       76     1020     0.00        0     13.5
    03/05/2021 03:30      0.3       26      1.8      321     45.3     45.5     45.0       75     1020     0.00        0     13.5
    03/05/2021 03:45      0.4       20      1.7      340     45.1     45.5     44.5       74     1020     0.00        0     13.5
    03/05/2021 04:00      0.0      332      1.0      285     44.4     44.8     44.0       75     1020     0.00        0     13.5
    03/05/2021 04:15      1.0      294      1.9      284     43.6     44.1     43.2       76     1020     0.00        0     13.5
    03/05/2021 04:30      0.8      326      1.9      332     43.5     43.7     43.2       76     1020     0.00        0     13.5
    03/05/2021 04:45      0.8      325      2.6      336     43.3     43.6     43.0       77     1020     0.00        0     13.5
    03/05/2021 05:00      0.8      310      2.0      320     43.2     43.4     43.0       77     1020     0.00        0     13.5
    03/05/2021 05:15      1.1      318      2.1      354     43.3     43.7     43.0       77     1019     0.00        0     13.5
    03/05/2021 05:30      1.4      339      2.7      324     43.6     44.1     43.1       76     1019     0.00        0     13.5
    03/05/2021 05:45      0.3      350      1.8      342     43.0     43.5     42.6       76     1019     0.00        0     13.5
    03/05/2021 06:00      0.5      188      1.6      174     42.2     42.8     41.7       78     1019     0.00        0     13.5
    03/05/2021 06:15      1.1      345      2.2      335     42.0     42.4     41.6       79     1019     0.00        0     13.5
    03/05/2021 06:30      1.5      355      3.2      333     42.6     43.4     41.9       79     1019     0.00        5     13.5
    03/05/2021 06:45      1.5      343      2.9      331     43.5     43.9     43.2       76     1019     0.00       12     13.5
    03/05/2021 07:00      0.3      357      1.8      354     44.1     44.4     43.6       74     1019     0.00       35     13.5
    03/05/2021 07:15      1.0      103      2.4      104     45.0     45.7     44.2       73     1019     0.00       73     13.5
    03/05/2021 07:30      0.8      120      3.2      127     48.1     50.7     45.7       65     1020     0.00      155     13.4
    03/05/2021 07:45      1.0      133      2.8      134     52.9     54.8     50.7       54     1020     0.00      197     13.4
    03/05/2021 08:00      0.8      162      2.6      142     56.7     58.5     54.7       43     1020     0.00      245     13.3
    03/05/2021 08:15      0.9      175      1.7      175     58.8     59.1     58.5       42     1020     0.00      291     13.3
    03/05/2021 08:30      1.0      145      2.1      128     59.9     60.5     58.9       39     1020     0.00      336     13.2
    03/05/2021 08:45      1.1      172      2.8      157     61.3     62.5     60.3       34     1020     0.00      380     13.2
    03/05/2021 09:00      2.0      165      3.2      164     62.5     63.6     62.0       32     1020     0.00      423     13.2
    03/05/2021 09:15      1.4      157      2.3      169     64.4     65.2     63.6       29     1020     0.00      463     13.1
    03/05/2021 09:30      1.8      185      3.4      198     66.0     67.6     64.8       29     1020     0.00      496     13.1
    03/05/2021 09:45      1.9      195      3.2      160     67.9     68.6     67.3       28     1020     0.00      533     13.1
    03/05/2021 10:00      1.9      196      3.2      176     69.8     71.7     68.3       25     1020     0.00      568     13.1
    03/05/2021 10:15      2.1      174      3.6      150     71.9     72.6     71.1       22     1019     0.00      598     13.0
    03/05/2021 10:30      2.8       68      6.1       28     72.4     73.3     71.8       15     1019     0.00      628     13.0
    03/05/2021 10:45      3.0       49      7.9       31     72.8     73.3     72.3       15     1019     0.00      652     13.0
    03/05/2021 11:00      3.2       68      6.0       84     73.7     74.3     73.0       14     1019     0.00      672     13.0
    03/05/2021 11:15      2.2       64      6.4      103     75.1     75.9     74.0       13     1019     0.00      690     13.0
    03/05/2021 11:30      3.4       83      8.1       17     75.8     76.2     75.1       13     1019     0.01      704     13.0
    03/05/2021 11:45      3.3      135      7.3       46     76.3     77.1     75.5       12     1018     0.00      713     13.0
    03/05/2021 12:00      3.9       92      8.5       63     76.2     76.8     75.7       12     1018     0.00      719     13.0
    03/05/2021 12:15      4.2      133      9.2      130     76.9     77.7     76.5       12     1018     0.00      720     13.0
    03/05/2021 12:30      3.6      135      9.2      138     77.3     77.6     76.9       14     1018     0.00      717     13.0
    03/05/2021 12:45      3.7      138      8.1      136     77.3     77.9     76.8       12     1017     0.00      711     13.0
    03/05/2021 13:00      4.4      137      9.7      134     77.8     78.4     77.1       14     1017     0.00      700     13.0
    03/05/2021 13:15      3.3      178      7.1      166     79.1     80.0     78.3       12     1017     0.00      682     13.0
    03/05/2021 13:30      2.1      207      5.2      272     81.0     82.1     79.9       13     1016     0.00      677     13.0
    03/05/2021 13:45      4.8      148     10.1      135     79.9     81.0     79.3       12     1016     0.00      651     13.0
    03/05/2021 14:00      3.0      181      7.3      161     81.0     81.7     80.0       12     1016     0.00      626     13.0
    03/05/2021 14:15      5.3      181     10.7      173     80.5     81.3     79.8       12     1016     0.00      586     13.0
    03/05/2021 14:30      3.5      126      7.7      161     79.1     80.6     78.5       12     1016     0.00      570     13.0
    03/05/2021 14:45      2.1        2      5.9      253     78.5     79.7     77.7       10     1016     0.00      533     13.0
    03/05/2021 15:00      4.8      157     10.0      187     79.3     80.1     78.6       13     1015     0.00      496     13.0
    03/05/2021 15:15      5.7      175      9.4      171     79.8     80.2     79.3       12     1015     0.00      457     13.0
    03/05/2021 15:30      4.5      175      9.3      148     79.5     80.1     78.8       13     1015     0.00      415     13.0
    03/05/2021 15:45      4.6      183      7.9      191     79.3     79.8     78.8       16     1015     0.00      371     13.0
    03/05/2021 16:00      3.5      230      9.7      242     78.4     79.7     77.3       18     1015     0.00      324     13.0
    03/05/2021 16:15      4.5      269     12.0      250     75.6     77.3     74.4       22     1015     0.00      276     13.0
    03/05/2021 16:30      4.0      277      9.5      279     73.8     74.5     72.9       22     1014     0.00      156     13.0
    03/05/2021 16:45      5.7      263     12.5      248     72.4     73.2     71.8       23     1014     0.00       51     13.0
    03/05/2021 17:00      5.5      263     11.4      238     71.2     71.9     70.6       24     1014     0.00       35     13.1
    03/05/2021 17:15      5.9      258     13.5      248     70.1     70.7     69.4       25     1015     0.00       35     13.1
    03/05/2021 17:30      6.2      256     13.2      252     68.8     69.6     67.9       27     1014     0.00       23     13.1
    03/05/2021 17:45      5.9      252     11.9      247     67.2     68.0     66.2       26     1015     0.00       14     13.1
    03/05/2021 18:00      5.6      253     10.5      275     65.7     66.4     65.3       26     1015     0.00        5     13.1
    03/05/2021 18:15      4.3      254      8.0      261     64.8     65.5     64.3       26     1015     0.00        0     13.2
    03/05/2021 18:30      4.3      249      7.4      245     63.9     64.5     63.4       26     1015     0.00        0     13.2
    03/05/2021 18:45      5.2      251     10.5      255     63.1     63.5     62.6       32     1015     0.00        0     13.2
    03/05/2021 19:00      3.9      237      7.8      240     61.9     62.9     61.2       36     1015     0.00        0     13.2
    03/05/2021 19:15      2.7      232      6.7      264     60.5     61.4     59.7       41     1015     0.00        0     13.2
    03/05/2021 19:30      2.5      224      6.8      264     59.4     60.0     59.0       42     1015     0.00        0     13.2
    03/05/2021 19:45      3.5      257      6.8      264     59.0     59.2     58.8       42     1015     0.00        0     13.3
    03/05/2021 20:00      3.7      251      6.0      253     58.6     59.1     58.2       43     1015     0.00        0     13.3
    03/05/2021 20:15      2.0      260      3.7      264     57.7     58.4     57.3       45     1015     0.00        0     13.3
    03/05/2021 20:30      1.3      235      2.9      231     57.0     57.7     56.3       44     1015     0.00        0     13.3
    03/05/2021 20:45      1.3      223      3.4      195     55.8     56.4     55.2       45     1015     0.00        0     13.3
    03/05/2021 21:00      0.7      217      2.7      224     54.9     55.4     54.4       47     1015     0.00        0     13.3
    03/05/2021 21:15      0.7      228      1.9      214     54.0     54.5     53.5       50     1015     0.00        0     13.3
    03/05/2021 21:30      1.2      242      3.7      253     53.5     53.8     53.2       50     1015     0.00        0     13.3
    03/05/2021 21:45      1.5      266      4.1      273     53.6     54.0     53.2       50     1015     0.00        0     13.3
    03/05/2021 22:00      1.0      280      2.8      258     52.9     53.5     52.3       53     1015     0.00        0     13.3
    03/05/2021 22:15      0.5      306      1.5      317     52.2     52.6     51.7       54     1015     0.00        0     13.4
    03/05/2021 22:30      0.2      325      1.1      329     51.5     51.9     51.1       55     1015     0.00        0     13.4
    03/05/2021 22:45      0.8      318      1.6      340     51.1     51.4     50.7       56     1015     0.00        0     13.4
    03/05/2021 23:00      1.4      332      2.4      335     51.2     51.7     50.8       57     1015     0.00        0     13.4
    03/05/2021 23:15      1.0      324      2.1      350     50.5     51.0     49.8       59     1015     0.00        0     13.4
    03/05/2021 23:30      0.6      311      1.8      336     49.9     50.3     49.5       60     1015     0.00        0     13.4
    03/05/2021 23:45      0.8      303      2.2      232     49.1     49.9     48.8       61     1015     0.00        0     13.4
    03/06/2021 00:00      0.7      306      1.9      232     48.9     49.2     48.5       60     1015     0.00        0     13.4
    03/06/2021 00:15      1.8      233      4.3      257     48.5     48.9     48.0       61     1015     0.00        0     13.4
    03/06/2021 00:30      1.7      142      3.0      132     48.5     49.2     47.9       59     1015     0.00        0     13.4
    03/06/2021 00:45      0.5       64      1.7      101     49.1     49.5     48.7       59     1015     0.00        0     13.4
    03/06/2021 01:00      1.0       25      3.6       26     49.2     49.8     48.7       58     1015     0.00        0     13.4
    03/06/2021 01:15      0.5      337      1.6      351     48.1     49.2     47.2       63     1015     0.00        0     13.4
    03/06/2021 01:30      1.0      266      1.8      329     46.6     47.4     46.1       65     1015     0.00        0     13.4
    03/06/2021 01:45      1.2      355      2.7      335     46.5     47.0     46.0       64     1015     0.00        0     13.4
    03/06/2021 02:00      0.6      330      1.3      331     46.4     47.2     45.7       66     1015     0.00        0     13.4
    03/06/2021 02:15      1.2      328      2.1      348     45.8     46.1     45.5       66     1015     0.00        0     13.4
    03/06/2021 02:30      1.8      348      4.7      354     45.8     46.5     45.5       64     1015     0.00        0     13.4
    03/06/2021 02:45      1.5      240      3.3       18     46.3     47.3     45.4       64     1015     0.00        0     13.4
    03/06/2021 03:00      0.5      293      2.1      289     45.2     45.5     45.0       65     1015     0.00        0     13.4
    03/06/2021 03:15      0.2      293      1.2      277     45.0     45.3     44.5       66     1015     0.00        0     13.5
    03/06/2021 03:30      0.6      293      2.1      283     44.2     44.6     43.4       68     1015     0.00        0     13.5
    03/06/2021 03:45      0.8      322      1.8      336     43.7     44.1     43.4       69     1015     0.00        0     13.5
    03/06/2021 04:00      0.9      321      1.9      329     43.5     44.0     43.1       69     1015     0.00        0     13.5
    03/06/2021 04:15      0.8      345      2.0      348     43.3     43.5     43.0       69     1014     0.00        0     13.5
    03/06/2021 04:30      1.6      329      2.3      323     43.4     43.9     43.0       68     1014     0.00        0     13.5
    03/06/2021 04:45      0.8      350      1.5      339     43.5     43.9     43.1       69     1015     0.00        0     13.5
    03/06/2021 05:00      0.3      308      1.3      261     42.8     43.3     42.3       70     1015     0.00        0     13.5
    03/06/2021 05:15      0.6      327      1.6      324     42.4     42.6     42.2       71     1015     0.00        0     13.5
    03/06/2021 05:30      0.9      280      2.6      201     42.2     42.6     41.8       71     1015     0.00        0     13.5
    03/06/2021 05:45      0.9       23      2.2      352     41.8     42.1     41.3       72     1015     0.00        0     13.5
    03/06/2021 06:00      0.6       40      2.3       93     41.6     42.0     41.2       73     1015     0.00        0     13.5
    03/06/2021 06:15      0.6      160      2.1      166     41.6     41.9     41.4       74     1015     0.00        1     13.5
    03/06/2021 06:30      0.8       46      3.5       15     41.8     42.4     41.5       72     1015     0.00        6     13.5
    03/06/2021 06:45      0.8       30      3.6       33     42.8     43.3     42.2       71     1015     0.00       14     13.5
    03/06/2021 07:00      2.5       46      6.5       31     44.3     45.9     42.8       66     1015     0.00       37     13.5
    03/06/2021 07:15      2.5       53      4.7       26     46.5     47.3     45.8       63     1016     0.00       69     13.5
    03/06/2021 07:30      2.3       65      4.5       81     48.7     50.1     47.1       57     1016     0.00      150     13.4
    03/06/2021 07:45      1.9       43      4.8       44     51.1     52.4     50.0       53     1016     0.00      196     13.4
    03/06/2021 08:00      1.7       71      3.7       68     53.6     54.7     52.4       51     1016     0.00      242     13.3
    03/06/2021 08:15      2.4      140      4.9      163     55.1     55.6     54.3       51     1016     0.00      287     13.3
    03/06/2021 08:30      2.8      137      5.3      143     55.1     55.6     54.8       53     1016     0.00      332     13.3
    03/06/2021 08:45      2.8      156      5.7      159     56.5     57.4     55.1       52     1016     0.00      375     13.2
    03/06/2021 09:00      2.4      159      6.1      142     57.4     58.0     56.7       53     1016     0.00      417     13.2
    03/06/2021 09:15      1.6      148      4.4      138     57.8     58.1     57.5       53     1016     0.00      455     13.2
    03/06/2021 09:30      2.8      188      5.0      171     59.8     61.0     58.0       50     1016     0.00      493     13.2
    03/06/2021 09:45      1.7      217      3.6      182     60.5     62.2     59.0       50     1016     0.00      526     13.1
    03/06/2021 10:00      1.8      242      4.0      197     60.2     60.8     59.8       48     1016     0.00      556     13.1
    03/06/2021 10:15      2.1      201      4.9      179     62.3     63.2     60.2       40     1015     0.00      587     13.1
    03/06/2021 10:30      1.7      288      4.8      252     62.7     63.7     61.8       40     1015     0.00      611     13.1
    03/06/2021 10:45      3.5      105      7.3      164     63.9     64.7     63.1       38     1015     0.00      636     13.1
    03/06/2021 11:00      3.9      139      7.4      162     65.7     66.4     64.7       37     1015     0.00      652     13.1
    03/06/2021 11:15      3.5      145      6.9      173     65.7     66.8     64.8       37     1015     0.00      664     13.1
    03/06/2021 11:30      4.8      146     11.0      138     66.2     66.8     65.7       35     1015     0.00      682     13.1
    03/06/2021 11:45      3.7      112      8.9      149     66.6     67.1     66.0       35     1015     0.00      692     13.1
    03/06/2021 12:00      3.9      128      9.5      137     67.0     67.5     66.4       32     1015     0.00      695     13.1
    03/06/2021 12:15      5.4      124     10.1      144     67.2     67.6     66.3       32     1015     0.00      699     13.1
    03/06/2021 12:30      4.7      147     12.7      166     67.8     68.5     67.1       29     1014     0.00      701     13.1
    03/06/2021 12:45      4.4      139      9.8      167     68.3     69.4     67.6       29     1014     0.00      693     13.1
    03/06/2021 13:00      4.3      135     10.4      153     68.8     69.7     68.0       27     1014     0.00      683     13.1
    03/06/2021 13:15      4.5      101     10.3      100     69.4     69.6     69.1       25     1014     0.00      669     13.1
    03/06/2021 13:30      4.0      125      9.6      133     69.3     70.2     68.8       24     1013     0.00      652     13.1
    03/06/2021 13:45      3.8      132      9.6      137     70.3     70.8     69.7       27     1013     0.00      630     13.0
    03/06/2021 14:00      3.5      144      8.2      161     70.2     70.7     69.7       29     1013     0.00      600     13.0
    03/06/2021 14:15      5.0      151     11.4      170     70.9     72.1     69.8       30     1013     0.00      575     13.0
    03/06/2021 14:30      5.0      135     11.4       89     70.4     70.9     69.8       29     1013     0.00      543     13.0
    03/06/2021 14:45      5.1      131      9.9      147     69.4     70.1     69.0       28     1013     0.00      514     13.0
    03/06/2021 15:00      5.6      130     10.6      138     69.0     69.4     68.4       30     1013     0.00      477     13.0
    03/06/2021 15:15      7.0      148     12.9      150     68.2     68.7     67.6       28     1013     0.00      441     13.0
    03/06/2021 15:30      6.7      153     12.5      167     68.7     69.2     68.3       25     1013     0.00      404     13.0
    03/06/2021 15:45      5.2      136     10.8      153     68.3     69.1     67.7       27     1013     0.00      358     13.0
    03/06/2021 16:00      6.0      146     11.3      150     67.5     68.0     67.2       30     1013     0.00      316     13.1
    03/06/2021 16:15      6.9      151     12.2      136     67.2     67.7     66.5       31     1013     0.00      271     13.1
    03/06/2021 16:30      6.2      153     13.0      150     66.1     66.5     65.5       30     1013     0.00      188     13.1
    03/06/2021 16:45      5.8      145      8.8      143     65.1     65.6     64.5       30     1013     0.00       48     13.1
    03/06/2021 17:00      3.9      138      8.0      140     64.5     64.8     64.3       31     1013     0.00       32     13.1
    03/06/2021 17:15      2.2      120      6.8      105     64.4     64.6     64.1       30     1013     0.00       32     13.2
    03/06/2021 17:30      2.9      103      7.1       81     63.9     64.5     63.4       31     1013     0.00       23     13.2
    03/06/2021 17:45      3.5       97      7.6      115     63.1     63.6     62.6       33     1013     0.00       13     13.2
    03/06/2021 18:00      2.5      137      5.4       75     62.0     62.8     61.0       38     1013     0.00        5     13.2
    03/06/2021 18:15      2.9      144      5.1      143     60.4     61.2     59.8       46     1013     0.00        0     13.2
    03/06/2021 18:30      1.9      106      4.6      140     59.6     60.0     58.9       50     1013     0.00        0     13.2
    03/06/2021 18:45      1.9      110      4.0      105     58.7     59.2     58.2       55     1013     0.00        0     13.3
    03/06/2021 19:00      2.1       97      4.6       84     57.9     58.4     57.5       58     1014     0.00        0     13.3
    03/06/2021 19:15      1.4      110      3.9       94     57.1     57.6     56.6       62     1014     0.00        0     13.3
    03/06/2021 19:30      2.0       70      4.0       66     56.4     56.8     56.2       62     1014     0.00        0     13.3
    03/06/2021 19:45      2.3       75      4.5       77     56.0     56.4     55.5       64     1014     0.00        0     13.3
    03/06/2021 20:00      1.5       74      3.0       78     55.3     55.7     54.8       65     1014     0.00        0     13.3
    03/06/2021 20:15      1.8       76      3.6       55     54.8     55.0     54.4       65     1014     0.00        0     13.3
    03/06/2021 20:30      1.5       76      2.6       90     54.3     54.7     54.0       67     1015     0.00        0     13.3
    03/06/2021 20:45      1.7       75      3.1       89     54.2     54.4     54.0       67     1015     0.00        0     13.3
    03/06/2021 21:00      1.8       81      3.6       97     53.9     54.3     53.5       69     1015     0.00        0     13.3
    03/06/2021 21:15      2.2       67      3.7       47     53.9     54.2     53.5       70     1015     0.00        0     13.3
    03/06/2021 21:30      1.1       77      2.3       71     53.5     53.9     53.2       72     1015     0.00        0     13.3
    03/06/2021 21:45      1.5       73      3.6       65     53.1     53.4     52.8       73     1015     0.00        0     13.4
    03/06/2021 22:00      2.0       70      4.6       77     52.9     53.2     52.6       74     1015     0.00        0     13.4
    03/06/2021 22:15      1.1       82      3.4       51     52.6     52.8     52.2       76     1015     0.00        0     13.4
    03/06/2021 22:30      0.1      205      1.1      201     51.5     52.4     50.9       77     1015     0.00        0     13.4
    03/06/2021 22:45      0.7       85      2.2       99     51.1     51.3     50.9       79     1015     0.00        0     13.4
    03/06/2021 23:00      0.4       25      1.9       62     50.8     51.0     50.4       80     1015     0.00        0     13.4
    03/06/2021 23:15      0.2      113      1.4      104     50.3     50.6     49.9       80     1015     0.00        0     13.4
    03/06/2021 23:30      1.5       88      2.9       76     50.0     50.5     49.6       82     1015     0.00        0     13.4
    03/06/2021 23:45      1.3       72      2.4       91     50.4     50.7     50.1       83     1015     0.00        0     13.4
    03/07/2021 00:00      0.9       14      1.8       26     50.1     50.6     49.8       84     1015     0.00        0     13.4
    03/07/2021 00:15      0.9       23      2.3       32     49.8     50.1     49.4       84     1015     0.00        0     13.4
    03/07/2021 00:30      1.1       46      3.3       34     49.8     50.1     49.5       85     1015     0.00        0     13.4
    03/07/2021 00:45      0.8       14      2.9      354     49.5     50.1     49.2       85     1015     0.00        0     13.4
    03/07/2021 01:00      0.6       10      2.6       44     49.3     49.7     49.0       85     1015     0.00        0     13.4
    03/07/2021 01:15      1.7       63      3.6       72     50.2     50.5     49.5       86     1015     0.00        0     13.4
    03/07/2021 01:30      1.7       94      3.5       92     50.6     50.8     50.4       86     1015     0.00        0     13.4
    03/07/2021 01:45      1.8      145      3.7      159     50.8     51.1     50.6       86     1015     0.00        0     13.4
    03/07/2021 02:00      1.5      107      3.9      144     50.9     51.2     50.7       86     1015     0.00        0     13.4
    03/07/2021 02:15      1.4       88      3.4       69     51.0     51.2     50.8       85     1015     0.00        0     13.4
    03/07/2021 02:30      1.3      139      3.4      139     51.0     51.2     50.8       85     1015     0.00        0     13.4
    03/07/2021 02:45      1.6      143      3.2       93     51.1     51.3     51.0       84     1015     0.00        0     13.3
    03/07/2021 03:00      1.2      123      2.9      136     51.2     51.3     51.0       84     1015     0.00        0     13.3
    03/07/2021 03:15      1.1      104      3.0       94     51.1     51.5     50.9       84     1014     0.00        0     13.3
    03/07/2021 03:30      1.0       97      2.7       89     51.1     51.4     51.0       83     1014     0.00        0     13.3
    03/07/2021 03:45      1.8       76      3.5       96     51.2     51.5     51.0       82     1014     0.00        0     13.3
    03/07/2021 04:00      1.6       99      3.8       89     51.0     51.3     50.8       82     1014     0.00        0     13.3
    03/07/2021 04:15      1.3       92      3.3      103     50.9     51.1     50.6       82     1014     0.00        0     13.4
    03/07/2021 04:30      0.9       86      2.7      105     50.6     50.8     50.4       81     1014     0.00        0     13.4
    03/07/2021 04:45      1.6       75      3.0       66     50.3     50.5     50.0       81     1014     0.00        0     13.4
    03/07/2021 05:00      1.2       77      3.9       48     50.4     50.7     50.2       81     1015     0.00        0     13.4
    03/07/2021 05:15      1.8       80      3.9       93     50.5     50.7     50.3       80     1015     0.00        0     13.4
    03/07/2021 05:30      2.0       85      3.9       96     50.5     50.6     50.2       79     1015     0.00        0     13.4
    03/07/2021 05:45      1.8       77      3.8       67     50.4     50.7     50.1       79     1015     0.00        0     13.4
    03/07/2021 06:00      2.1       75      4.9       62     50.3     50.5     50.1       78     1015     0.00        0     13.4
    03/07/2021 06:15      2.0       63      3.8       55     50.1     50.3     49.9       79     1015     0.00        1     13.4
    03/07/2021 06:30      1.4       63      2.8       29     49.9     50.1     49.6       79     1015     0.00        6     13.4
    03/07/2021 06:45      1.1      357      2.8        9     49.8     50.0     49.6       78     1015     0.00       20     13.4
    03/07/2021 07:00      1.6      356      3.8       16     49.8     50.0     49.5       78     1015     0.00       38     13.4
    03/07/2021 07:15      2.2       16      5.4       -0     50.0     50.3     49.8       77     1015     0.00       55     13.4
    03/07/2021 07:30      2.2       28      5.1       48     50.3     50.7     49.9       76     1015     0.00       91     13.4
    03/07/2021 07:45      2.7       12      5.9       16     50.7     51.0     50.4       74     1015     0.00      106     13.4
    03/07/2021 08:00      2.2       21      4.9        1     51.1     51.7     50.7       73     1015     0.00      121     13.3
    03/07/2021 08:15      2.4       40      5.4       49     51.9     52.1     51.5       71     1016     0.00      120     13.3
    03/07/2021 08:30      1.9       40      4.0       27     52.4     52.9     51.9       70     1016     0.00      166     13.3
    03/07/2021 08:45      0.7        0      2.1      279     53.7     54.3     52.7       67     1016     0.00      196     13.3
    03/07/2021 09:00      1.5      209      4.2      173     54.8     56.0     53.8       67     1016     0.00      278     13.3
    03/07/2021 09:15      1.6      190      5.2      170     56.3     57.0     55.5       63     1016     0.00      274     13.2
    03/07/2021 09:30      2.4      164      5.3      188     55.7     56.1     55.1       65     1016     0.00      194     13.2
    03/07/2021 09:45      1.1      178      4.0       71     55.5     56.4     55.0       65     1016     0.00      218     13.2
    03/07/2021 10:00      2.4      142      6.0      159     57.1     57.8     56.3       61     1016     0.00      373     13.2
    03/07/2021 10:15      1.1      205      3.3      123     56.1     56.5     55.7       60     1016     0.00      264     13.2
    03/07/2021 10:30      1.9      143      4.3       77     57.4     58.3     56.2       56     1016     0.00      341     13.2
    03/07/2021 10:45      2.1       90      6.8      151     57.8     58.7     57.4       58     1016     0.00      348     13.2
    03/07/2021 11:00      2.5       88      5.7      163     58.5     59.1     58.1       55     1016     0.00      458     13.2
    03/07/2021 11:15      2.1       75      5.3      183     59.5     60.6     59.0       54     1016     0.00      563     13.1
    03/07/2021 11:30      2.7      105      6.4       92     59.4     60.8     58.7       53     1016     0.00      332     13.1
    03/07/2021 11:45      2.5      114      9.5      141     59.5     60.4     59.1       53     1016     0.00      379     13.1
    03/07/2021 12:00      2.8      117      6.8      134     60.6     61.0     60.3       52     1016     0.00      480     13.1
    03/07/2021 12:15      1.6      219      4.0      251     61.1     61.7     60.5       52     1016     0.00      275     13.1
    03/07/2021 12:30      3.9      171      7.0      180     61.6     62.6     60.5       50     1016     0.00      362     13.1
    03/07/2021 12:45      2.0      197      6.3      163     62.0     62.5     61.4       49     1016     0.00      267     13.1
    03/07/2021 13:00      2.4      144      5.7      158     61.3     61.7     60.9       50     1016     0.00      271     13.1
    03/07/2021 13:15      1.8      311      4.2      248     61.0     61.3     60.6       52     1015     0.00      272     13.1